Metar Report
Metar
METAR KAXV 111156Z AUTO 18007KT 5SM HZ BKN050 OVC060 02/M01 A3013 A02 2666
METAR KAXV 111056Z AUTO 19007KT 7SM BKN070 OVC080 01/M01 A3013 A02 2665
METAR KAXV 110956Z AUTO 18006KT 7SM BR SCT090 00/M02 A3012 A02 2664
METAR KAXV 110856Z AUTO 19005KT 7SM CLR 00/M02 A3014 A02 2663
METAR KAXV 110756Z AUTO 21007KT 7SM SCT095 01/M01 A3015 A02 2662
METAR KAXV 110656Z AUTO 21005KT 7SM OVC050 01/M01 A3017 A02 2661
METAR KAXV 110556Z AUTO 21004KT 7SM CLR M01/M01 A3019 A02 2660
METAR KAXV 110456Z AUTO 23003KT 7SM SCT046 01/M02 A3018 A02 2659
METAR KAXV 110356Z AUTO 20003KT 10SM OVC046 03/M02 A3018 A02 2658
METAR KAXV 110256Z AUTO 19003KT 7SM OVC050 03/M02 A3019 A02 2657
METAR KAXV 110156Z AUTO 24003KT 7SM OVC050 03/M02 A3019 A02 2656
METAR KAXV 110056Z AUTO 28004KT 7SM OVC050 04/M03 A3020 A02 2655
METAR KAXV 102356Z AUTO 29006KT 7SM OVC050 04/M03 A3020 A02 2654
METAR KAXV 102256Z AUTO 29006KT 7SM OVC050 05/M04 A3020 A02 2653
METAR KAXV 102156Z AUTO 28006KT 5SM HZ OVC048 05/M04 A3021 A02 2652
METAR KAXV 102056Z AUTO 27008KT 7SM OVC050 05/M05 A3022 A02 2651
METAR KAXV 101956Z AUTO 30006KT 5SM HZ OVC050 06/M06 A3023 A02 2650
METAR KAXV 101856Z AUTO 27005KT 5SM HZ OVC050 05/M06 A3024 A02 2649
METAR KAXV 101756Z AUTO 31007KT 270V350 7SM OVC050 04/M05 A3026 A02 2648
METAR KAXV 101656Z AUTO 26008KT 3SM HZ BKN046 05/M05 A3028 A02 2647
METAR KAXV 101556Z AUTO 27006KT 5SM HZ SCT055 04/M05 A3030 A02 2646
METAR KAXV 101456Z AUTO 34003KT 7SM CLR 03/M05 A3030 A02 2645
METAR KAXV 101356Z AUTO 33005KT 5SM HZ CLR 02/M04 A3030 A02 2644
METAR KAXV 101256Z AUTO 34006KT 5SM BR CLR 00/00 A3029 A02 2643
METAR KAXV 101156Z AUTO 33005KT 4SM BR CLR M01/M01 A3027 A02 2642
METAR KAXV 101056Z AUTO 27003KT 5SM BR SCT012 M03/M03 A3026 A02 2641
METAR KAXV 100956Z AUTO 25003KT 5SM BR CLR M03/M03 A3025 A02 2640
METAR KAXV 100856Z AUTO 00000KT 5SM BR CLR M03/M03 A3023 A02 2639
METAR KAXV 100756Z AUTO 00000KT 5SM BR CLR M02/M02 A3023 A02 2638
METAR KAXV 100656Z AUTO 27003KT 7SM BR CLR 00/00 A3023 A02 2637
METAR KAXV 100556Z AUTO 00000KT 5SM BR SCT029 M02/M02 A3023 A02 2636
METAR KAXV 100456Z AUTO 00000KT 5SM BR SCT031 M01/M01 A3023 A02 2635
METAR KAXV 100356Z AUTO 00000KT 5SM BR SCT023 M01/M01 A3023 A02 2634
METAR KAXV 100256Z AUTO 00000KT 7SM CLR 00/00 A3023 A02 2633
METAR KAXV 100156Z AUTO 00000KT 10SM BKN070 02/00 A3020 A02 2632
METAR KAXV 100056Z AUTO 00000KT 7SM OVC060 03/M01 A3018 A02 2631
METAR KAXV 092356Z AUTO 00000KT 7SM OVC050 03/M01 A3016 A02 2630
METAR KAXV 092256Z AUTO 34003KT 5SM HZ SCT026 OVC050 03/M01 A3016 A02 2629
METAR KAXV 092156Z AUTO 00000KT 5SM HZ SCT025 BKN032 OVC055 03/M01 A3015 A02 2628
METAR KAXV 092056Z AUTO 33004KT 5SM HZ BKN025 BKN037 OVC043 03/M01 A3014 A02 2627
METAR KAXV 091956Z AUTO 00000KT 5SM HZ SCT026 SCT032 OVC044 03/M01 A3013 A02 2626
METAR KAXV 091856Z AUTO 10003KT 7SM BKN026 OVC033 03/00 A3012 A02 2625
METAR KAXV 091756Z AUTO 00000KT 4SM HZ OVC021 02/M01 A3012 A02 2624
METAR KAXV 091656Z AUTO 00000KT 7SM -SN OVC019 02/00 A3013 A02 2623
METAR KAXV 091556Z AUTO 09005KT 7SM -SN OVC017 02/M01 A3013 A02 2622
METAR KAXV 091456Z AUTO 10004KT 5SM -SN BKN017 01/M01 A3013 A02 2621
METAR KAXV 091356Z AUTO 10007KT 7SM -SN CLR 01/M02 A3012 A02 2620
METAR KAXV 091256Z AUTO 06005KT 2 1/2 2V3SM -SN SCT014 OVC024 00/00 A3010 A02 2619
METAR KAXV 091156Z AUTO 00000KT 5SM -SN SCT036 OVC044 00/M01 A3008 A02 2618
METAR KAXV 091056Z AUTO 12004KT 7SM -SN CLR 00/00 A3008 A02 2617
METAR KAXV 090956Z AUTO 15004KT 7SM BKN050 00/M01 A3007 A02 2616
METAR KAXV 090856Z AUTO 17004KT 7SM CLR 00/00 A3008 A02 2615
METAR KAXV 090756Z AUTO 16007KT 7SM SCT029 SCT036 SCT046 01/M04 A3010 A02 2614
METAR KAXV 090656Z AUTO 00000KT 10SM CLR 01/M06 A3010 A02 2613
METAR KAXV 090556Z AUTO 11005KT 7SM CLR 02/M06 A3008 A02 2612
METAR KAXV 090456Z AUTO 10007KT 7SM SCT100 02/M04 A3005 A02 2611
METAR KAXV 090356Z AUTO 07003KT 7SM CLR 02/M06 A3005 A02 2610
METAR KAXV 090256Z AUTO 08003KT 7SM HZ CLR 02/M06 A3006 A02 2609
METAR KAXV 090156Z AUTO 07004KT 7SM CLR 03/M07 A3006 A02 2608
METAR KAXV 090056Z AUTO 06003KT 7SM CLR 03/M07 A3006 A02 2607
METAR KAXV 082356Z AUTO 09003KT 5SM HZ CLR 03/M08 A3006 A02 2606
METAR KAXV 082256Z AUTO 06003KT 5SM HZ CLR 03/M08 A3006 A02 2605
METAR KAXV 082156Z AUTO 00000KT 5SM HZ CLR 04/M09 A3006 A02 2604
METAR KAXV 082056Z AUTO 24003KT 5SM HZ CLR 03/M11 A3006 A02 2603
METAR KAXV 081956Z AUTO 00000KT 7SM CLR 04/M11 A3006 A02 2602
METAR KAXV 081856Z AUTO 05004KT 7SM HZ CLR 04/M11 A3007 A02 2601
METAR KAXV 081756Z AUTO 02007KT 330V040 7SM CLR 02/M11 A3009 A02 2600
METAR KAXV 081656Z AUTO 00000KT 5SM HZ CLR 02/M11 A3010 A02 2599
METAR KAXV 081556Z AUTO 35004KT 7SM HZ CLR 01/M11 A3012 A02 2598
METAR KAXV 081456Z AUTO 03009KT 5SM HZ CLR 00/M11 A3012 A02 2597
METAR KAXV 081356Z AUTO 05006KT 7SM CLR M02/M09 A3010 A02 2596
METAR KAXV 081256Z AUTO 01005KT 7SM HZ CLR M03/M07 A3011 A02 2595
METAR KAXV 081156Z AUTO 34003KT 5SM BR CLR M06/M06 A3009 A02 2594
METAR KAXV 081056Z AUTO 33004KT 7SM CLR M07/M08 A3008 A02 2593
METAR KAXV 080956Z AUTO 35004KT 7SM CLR M06/M08 A3006 A02 2592
METAR KAXV 080856Z AUTO 33006KT 7SM CLR M04/M09 A3006 A02 2591
METAR KAXV 080756Z AUTO 00000KT 7SM CLR M04/M08 A3005 A02 2590
METAR KAXV 080656Z AUTO 31003KT 10SM CLR M03/M08 A3005 A02 2589
METAR KAXV 080556Z AUTO 31003KT 7SM CLR M03/M08 A3005 A02 2588
METAR KAXV 080456Z AUTO 00000KT 7SM CLR M03/M07 A3005 A02 2587
METAR KAXV 080356Z AUTO 34006KT 7SM CLR M02/M07 A3005 A02 2586
METAR KAXV 080256Z AUTO 33006KT 7SM CLR M01/M06 A3005 A02 2585
METAR KAXV 080156Z AUTO 33009KT 7SM SCT050 00/M05 A3004 A02 2584
METAR KAXV 080056Z AUTO 31006KT 7SM OVC050 02/M07 A3002 A02 2583
METAR KAXV 072356Z AUTO 32004KT 7SM BKN050 03/M07 A3001 A02 2582
METAR KAXV 072256Z AUTO 30008G14KT 5SM HZ OVC048 03/M07 A3001 A02 2581
METAR KAXV 072156Z AUTO 30006KT 7SM BKN046 03/M07 A3001 A02 2580
METAR KAXV 072056Z AUTO 26013G17KT 7SM BKN046 04/M06 A3002 A02 2579
METAR KAXV 071956Z AUTO 27010KT 5SM HZ SCT042 04/M06 A3004 A02 2578
METAR KAXV 071856Z AUTO 26008KT 7SM BKN042 BKN049 03/M06 A3005 A02 2577
METAR KAXV 071756Z AUTO 30003G14KT 5SM HZ SCT042 SCT050 02/M07 A3006 A02 2576
METAR KAXV 071656Z AUTO 22003KT 5SM HZ SCT040 01/M08 A3007 A02 2575
METAR KAXV 071556Z AUTO 25006KT 7SM BKN036 00/M07 A3010 A02 2574
METAR KAXV 071456Z AUTO 33005KT 7SM HZ BKN034 M01/M09 A3010 A02 2573
METAR KAXV 071356Z AUTO 31006KT 7SM CLR M01/M05 A3010 A02 2572
METAR KAXV 071256Z AUTO 32006KT 5SM BR CLR M02/M04 A3011 A02 2571
METAR KAXV 071156Z AUTO 32003KT 7SM CLR M04/M04 A3010 A02 2570
METAR KAXV 071056Z AUTO 33004KT 7SM CLR M04/M05 A3009 A02 2569
METAR KAXV 070956Z AUTO 34004KT 10SM CLR M04/M05 A3008 A02 2568
METAR KAXV 070856Z AUTO 35006KT 7SM CLR M03/M05 A3006 A02 2567
METAR KAXV 070756Z AUTO 35010KT 10SM CLR M02/M06 A3005 A02 2566
METAR KAXV 070656Z AUTO 34011KT 10SM CLR M02/M05 A3005 A02 2565
METAR KAXV 070556Z AUTO 33009KT 7SM SCT090 M01/M05 A3005 A02 2564
METAR KAXV 070456Z AUTO 33010KT 10SM SCT090 M01/M06 A3003 A02 2563
METAR KAXV 070356Z AUTO 32009KT 7SM SCT048 OVC075 M01/M06 A3002 A02 2562
METAR KAXV 070256Z AUTO 32009KT 7SM SCT022 SCT026 SCT031 M01/M02 A3001 A02 2561
METAR KAXV 070156Z AUTO 34012KT 2 1/2SM -SN BKN009 BKN013 OVC020 M01/M01 A2999 A02 2560
METAR KAXV 070056Z AUTO 30008G17KT 7SM -SN SCT026 SCT031 01/M03 A2996 A02 2559
METAR KAXV 062356Z AUTO 30012G18KT 10SM OVC034 02/M06 A2993 A02 2558
METAR KAXV 062256Z AUTO 27016G21KT 7SM SCT060 BKN065 BKN085 04/M02 A2990 A02 2557
METAR KAXV 062156Z AUTO 24015G22KT 7SM -RA SCT016 SCT024 BKN049 03/02 A2989 A02 2556
METAR KAXV 062056Z AUTO 28015G23KT 7SM SCT027 BKN036 BKN043 04/M01 A2989 A02 2555
METAR KAXV 061956Z AUTO 26014G23KT 7SM SCT025 SCT033 BKN041 07/M01 A2989 A02 2554
METAR KAXV 061856Z AUTO 28011G22KT 7SM BKN075 09/M01 A2986 A02 2553
METAR KAXV 061756Z AUTO 28013G20KT 5SM HZ SCT055 10/01 A2984 A02 2552
METAR KAXV 061656Z AUTO 29011G18KT 7SM SCT060 SCT075 SCT120 10/01 A2985 A02 2551
METAR KAXV 061556Z AUTO 27013G20KT 7SM CLR 09/02 A2987 A02 2550
METAR KAXV 061456Z AUTO 26012KT 5SM HZ SCT100 08/02 A2986 A02 2549
METAR KAXV 061356Z AUTO 27011G19KT 7SM CLR 08/03 A2985 A02 2548
METAR KAXV 061256Z AUTO 25011KT 5SM HZ CLR 07/03 A2985 A02 2547
METAR KAXV 061156Z AUTO 22010KT 5SM HZ CLR 06/02 A2983 A02 2546